sensor_id;sensor_type;location;lat;lon;timestamp;pressure;altitude;pressure_sealevel;temperature;humidity
58622;BME280;44389;51.578;5.456;2023-05-21T00:00:08;101703.09;;;11.32;100.00
58622;BME280;44389;51.578;5.456;2023-05-21T00:02:37;101699.59;;;11.30;100.00
58622;BME280;44389;51.578;5.456;2023-05-21T00:05:03;101702.19;;;11.30;100.00
58622;BME280;44389;51.578;5.456;2023-05-21T00:07:28;101696.94;;;11.28;100.00
58622;BME280;44389;51.578;5.456;2023-05-21T00:09:55;101692.53;;;11.26;100.00
58622;BME280;44389;51.578;5.456;2023-05-21T00:12:21;101693.38;;;11.25;100.00
58622;BME280;44389;51.578;5.456;2023-05-21T00:14:46;101686.50;;;11.25;100.00
58622;BME280;44389;51.578;5.456;2023-05-21T00:17:11;101688.81;;;11.19;100.00
58622;BME280;44389;51.578;5.456;2023-05-21T00:19:36;101682.75;;;11.17;100.00
58622;BME280;44389;51.578;5.456;2023-05-21T00:22:04;101689.47;;;11.13;100.00
58622;BME280;44389;51.578;5.456;2023-05-21T00:24:29;101674.75;;;11.11;100.00
58622;BME280;44389;51.578;5.456;2023-05-21T00:26:54;101680.66;;;11.08;100.00
58622;BME280;44389;51.578;5.456;2023-05-21T00:29:20;101680.50;;;11.05;100.00
58622;BME280;44389;51.578;5.456;2023-05-21T00:31:46;101682.03;;;11.00;100.00
58622;BME280;44389;51.578;5.456;2023-05-21T00:34:12;101679.88;;;10.90;100.00
58622;BME280;44389;51.578;5.456;2023-05-21T00:36:37;101673.47;;;10.80;100.00
58622;BME280;44389;51.578;5.456;2023-05-21T00:39:04;101674.09;;;10.74;100.00
58622;BME280;44389;51.578;5.456;2023-05-21T00:41:30;101675.59;;;10.69;100.00
58622;BME280;44389;51.578;5.456;2023-05-21T00:43:55;101672.09;;;10.67;100.00
58622;BME280;44389;51.578;5.456;2023-05-21T00:46:21;101667.47;;;10.60;100.00
58622;BME280;44389;51.578;5.456;2023-05-21T00:48:48;101661.38;;;10.58;100.00
58622;BME280;44389;51.578;5.456;2023-05-21T00:51:14;101657.97;;;10.59;100.00
58622;BME280;44389;51.578;5.456;2023-05-21T00:53:40;101672.44;;;10.55;100.00
58622;BME280;44389;51.578;5.456;2023-05-21T00:56:06;101666.28;;;10.51;100.00
58622;BME280;44389;51.578;5.456;2023-05-21T00:58:31;101668.03;;;10.52;100.00
58622;BME280;44389;51.578;5.456;2023-05-21T01:00:58;101664.50;;;10.50;100.00
58622;BME280;44389;51.578;5.456;2023-05-21T01:03:28;101666.38;;;10.54;100.00
58622;BME280;44389;51.578;5.456;2023-05-21T01:05:54;101666.47;;;10.56;100.00
58622;BME280;44389;51.578;5.456;2023-05-21T01:08:24;101669.81;;;10.53;100.00
58622;BME280;44389;51.578;5.456;2023-05-21T01:10:50;101664.50;;;10.50;100.00
58622;BME280;44389;51.578;5.456;2023-05-21T01:13:16;101660.25;;;10.51;100.00
58622;BME280;44389;51.578;5.456;2023-05-21T01:15:43;101663.00;;;10.56;100.00
58622;BME280;44389;51.578;5.456;2023-05-21T01:18:08;101656.81;;;10.52;100.00
58622;BME280;44389;51.578;5.456;2023-05-21T01:20:34;101656.78;;;10.50;100.00
58622;BME280;44389;51.578;5.456;2023-05-21T01:22:59;101656.78;;;10.50;100.00
58622;BME280;44389;51.578;5.456;2023-05-21T01:25:25;101662.72;;;10.49;100.00
58622;BME280;44389;51.578;5.456;2023-05-21T01:27:50;101648.91;;;10.47;100.00
58622;BME280;44389;51.578;5.456;2023-05-21T01:30:17;101655.69;;;10.45;100.00
58622;BME280;44389;51.578;5.456;2023-05-21T01:33:04;101651.63;;;10.50;100.00
58622;BME280;44389;51.578;5.456;2023-05-21T01:35:34;101660.25;;;10.51;100.00
58622;BME280;44389;51.578;5.456;2023-05-21T01:38:20;101657.09;;;10.58;100.00
58622;BME280;44389;51.578;5.456;2023-05-21T01:41:05;101657.38;;;10.64;100.00
58622;BME280;44389;51.578;5.456;2023-05-21T01:43:34;101653.34;;;10.71;100.00
58622;BME280;44389;51.578;5.456;2023-05-21T01:46:01;101657.09;;;10.79;100.00
58622;BME280;44389;51.578;5.456;2023-05-21T01:48:27;101659.03;;;10.83;100.00
58622;BME280;44389;51.578;5.456;2023-05-21T01:50:54;101651.41;;;10.86;100.00
58622;BME280;44389;51.578;5.456;2023-05-21T01:53:21;101655.06;;;10.92;100.00
58622;BME280;44389;51.578;5.456;2023-05-21T01:55:47;101644.03;;;10.96;100.00
58622;BME280;44389;51.578;5.456;2023-05-21T01:58:13;101645.03;;;10.99;100.00
58622;BME280;44389;51.578;5.456;2023-05-21T02:00:40;101639.25;;;11.05;100.00
58622;BME280;44389;51.578;5.456;2023-05-21T02:03:05;101643.03;;;11.13;100.00
58622;BME280;44389;51.578;5.456;2023-05-21T02:05:30;101641.56;;;11.20;100.00
58622;BME280;44389;51.578;5.456;2023-05-21T02:07:57;101641.88;;;11.28;100.00
58622;BME280;44389;51.578;5.456;2023-05-21T02:10:25;101642.06;;;11.32;100.00
58622;BME280;44389;51.578;5.456;2023-05-21T02:12:51;101632.81;;;11.38;100.00
58622;BME280;44389;51.578;5.456;2023-05-21T02:15:16;101634.63;;;11.40;100.00
58622;BME280;44389;51.578;5.456;2023-05-21T02:17:45;101645.00;;;11.42;100.00
58622;BME280;44389;51.578;5.456;2023-05-21T02:20:11;101636.44;;;11.43;100.00
58622;BME280;44389;51.578;5.456;2023-05-21T02:22:40;101635.78;;;11.48;100.00
58622;BME280;44389;51.578;5.456;2023-05-21T02:25:07;101636.84;;;11.53;100.00
58622;BME280;44389;51.578;5.456;2023-05-21T02:27:33;101638.84;;;11.61;100.00
58622;BME280;44389;51.578;5.456;2023-05-21T02:30:01;101639.00;;;11.65;100.00
58622;BME280;44389;51.578;5.456;2023-05-21T02:32:28;101646.13;;;11.71;100.00
58622;BME280;44389;51.578;5.456;2023-05-21T02:34:53;101635.91;;;11.74;100.00
58622;BME280;44389;51.578;5.456;2023-05-21T02:37:20;101637.72;;;11.77;100.00
58622;BME280;44389;51.578;5.456;2023-05-21T02:39:46;101636.94;;;11.79;100.00
58622;BME280;44389;51.578;5.456;2023-05-21T02:42:11;101636.13;;;11.80;100.00
58622;BME280;44389;51.578;5.456;2023-05-21T02:44:36;101637.19;;;11.85;100.00
58622;BME280;44389;51.578;5.456;2023-05-21T02:47:01;101627.72;;;11.86;100.00
58622;BME280;44389;51.578;5.456;2023-05-21T02:49:27;101626.94;;;11.89;100.00
58622;BME280;44389;51.578;5.456;2023-05-21T02:51:52;101628.81;;;11.93;100.00
58622;BME280;44389;51.578;5.456;2023-05-21T02:54:17;101631.56;;;11.96;100.00
58622;BME280;44389;51.578;5.456;2023-05-21T02:56:42;101627.31;;;11.98;100.00
58622;BME280;44389;51.578;5.456;2023-05-21T02:59:08;101623.91;;;11.99;100.00
58622;BME280;44389;51.578;5.456;2023-05-21T03:01:33;101621.34;;;11.99;100.00
58622;BME280;44389;51.578;5.456;2023-05-21T03:03:58;101617.13;;;12.01;100.00
58622;BME280;44389;51.578;5.456;2023-05-21T03:06:24;101617.13;;;12.01;100.00
58622;BME280;44389;51.578;5.456;2023-05-21T03:08:49;101618.88;;;12.02;100.00
58622;BME280;44389;51.578;5.456;2023-05-21T03:11:14;101618.13;;;12.05;100.00
58622;BME280;44389;51.578;5.456;2023-05-21T03:13:39;101616.41;;;12.05;100.00
58622;BME280;44389;51.578;5.456;2023-05-21T03:16:06;101611.22;;;12.05;100.00
58622;BME280;44389;51.578;5.456;2023-05-21T03:18:31;101615.69;;;12.09;100.00
58622;BME280;44389;51.578;5.456;2023-05-21T03:20:57;101606.16;;;12.08;100.00
58622;BME280;44389;51.578;5.456;2023-05-21T03:23:23;101596.69;;;12.07;100.00
58622;BME280;44389;51.578;5.456;2023-05-21T03:25:48;101594.13;;;12.09;100.00
58622;BME280;44389;51.578;5.456;2023-05-21T03:28:15;101595.00;;;12.09;100.00
58622;BME280;44389;51.578;5.456;2023-05-21T03:30:41;101595.22;;;12.15;100.00
58622;BME280;44389;51.578;5.456;2023-05-21T03:33:10;101594.50;;;12.19;100.00
58622;BME280;44389;51.578;5.456;2023-05-21T03:35:35;101602.25;;;12.19;100.00
58622;BME280;44389;51.578;5.456;2023-05-21T03:38:01;101597.22;;;12.23;100.00
58622;BME280;44389;51.578;5.456;2023-05-21T03:40:26;101595.50;;;12.23;100.00
58622;BME280;44389;51.578;5.456;2023-05-21T03:42:51;101593.78;;;12.24;100.00
58622;BME280;44389;51.578;5.456;2023-05-21T03:45:17;101602.47;;;12.26;100.00
58622;BME280;44389;51.578;5.456;2023-05-21T03:47:42;101602.47;;;12.26;100.00
58622;BME280;44389;51.578;5.456;2023-05-21T03:50:09;101609.41;;;12.27;100.00
58622;BME280;44389;51.578;5.456;2023-05-21T03:52:34;101601.69;;;12.28;100.00
58622;BME280;44389;51.578;5.456;2023-05-21T03:55:00;101599.06;;;12.27;100.00
58622;BME280;44389;51.578;5.456;2023-05-21T03:57:25;101600.72;;;12.25;100.00
58622;BME280;44389;51.578;5.456;2023-05-21T03:59:50;101611.94;;;12.25;100.00
58622;BME280;44389;51.578;5.456;2023-05-21T04:02:16;101597.31;;;12.26;100.00
58622;BME280;44389;51.578;5.456;2023-05-21T04:04:41;101597.22;;;12.23;100.00
58622;BME280;44389;51.578;5.456;2023-05-21T04:07:08;101597.13;;;12.21;100.00
58622;BME280;44389;51.578;5.456;2023-05-21T04:09:38;101598.75;;;12.17;100.00
58622;BME280;44389;51.578;5.456;2023-05-21T04:12:04;101615.91;;;12.15;100.00
58622;BME280;44389;51.578;5.456;2023-05-21T04:14:29;101613.13;;;12.11;100.00
58622;BME280;44389;51.578;5.456;2023-05-21T04:16:54;101604.28;;;12.04;100.00
58622;BME280;44389;51.578;5.456;2023-05-21T04:19:20;101599.75;;;11.97;100.00
58622;BME280;44389;51.578;5.456;2023-05-21T04:21:46;101602.13;;;11.92;100.00
58622;BME280;44389;51.578;5.456;2023-05-21T04:24:11;101613.03;;;11.85;100.00
58622;BME280;44389;51.578;5.456;2023-05-21T04:26:37;101603.44;;;11.81;100.00
58622;BME280;44389;51.578;5.456;2023-05-21T04:29:06;101602.50;;;11.79;100.00
58622;BME280;44389;51.578;5.456;2023-05-21T04:31:31;101608.50;;;11.78;100.00
58622;BME280;44389;51.578;5.456;2023-05-21T04:33:56;101609.34;;;11.78;100.00
58622;BME280;44389;51.578;5.456;2023-05-21T04:36:22;101614.53;;;11.78;100.00
58622;BME280;44389;51.578;5.456;2023-05-21T04:38:48;101613.75;;;11.81;100.00
58622;BME280;44389;51.578;5.456;2023-05-21T04:41:13;101606.00;;;11.81;100.00
58622;BME280;44389;51.578;5.456;2023-05-21T04:43:39;101613.81;;;11.82;100.00
58622;BME280;44389;51.578;5.456;2023-05-21T04:46:08;101612.22;;;11.86;100.00
58622;BME280;44389;51.578;5.456;2023-05-21T04:48:33;101614.84;;;11.88;100.00
58622;BME280;44389;51.578;5.456;2023-05-21T04:50:59;101614.03;;;11.89;100.00
58622;BME280;44389;51.578;5.456;2023-05-21T04:53:24;101614.94;;;11.89;100.00
58622;BME280;44389;51.578;5.456;2023-05-21T04:55:50;101615.81;;;11.90;100.00
58622;BME280;44389;51.578;5.456;2023-05-21T04:58:15;101618.44;;;11.91;100.00
58622;BME280;44389;51.578;5.456;2023-05-21T05:00:42;101620.16;;;11.91;100.00
58622;BME280;44389;51.578;5.456;2023-05-21T05:03:11;101624.50;;;11.92;100.00
58622;BME280;44389;51.578;5.456;2023-05-21T05:05:36;101618.50;;;11.93;100.00
58622;BME280;44389;51.578;5.456;2023-05-21T05:08:01;101613.31;;;11.93;100.00
58622;BME280;44389;51.578;5.456;2023-05-21T05:10:28;101614.28;;;11.95;100.00
58622;BME280;44389;51.578;5.456;2023-05-21T05:12:53;101622.16;;;11.98;100.00
58622;BME280;44389;51.578;5.456;2023-05-21T05:15:18;101615.34;;;12.00;100.00
58622;BME280;44389;51.578;5.456;2023-05-21T05:17:44;101611.13;;;12.02;100.00
58622;BME280;44389;51.578;5.456;2023-05-21T05:20:12;101609.50;;;12.06;100.00
58622;BME280;44389;51.578;5.456;2023-05-21T05:22:38;101617.50;;;12.12;100.00
58622;BME280;44389;51.578;5.456;2023-05-21T05:25:03;101607.31;;;12.16;100.00
58622;BME280;44389;51.578;5.456;2023-05-21T05:27:29;101610.06;;;12.21;100.00
58622;BME280;44389;51.578;5.456;2023-05-21T05:29:54;101606.81;;;12.27;100.00
58622;BME280;44389;51.578;5.456;2023-05-21T05:32:20;101617.34;;;12.33;100.00
58622;BME280;44389;51.578;5.456;2023-05-21T05:34:45;101609.78;;;12.38;100.00
58622;BME280;44389;51.578;5.456;2023-05-21T05:37:11;101613.44;;;12.44;100.00
58622;BME280;44389;51.578;5.456;2023-05-21T05:39:36;101610.25;;;12.51;100.00
58622;BME280;44389;51.578;5.456;2023-05-21T05:42:02;101607.03;;;12.59;100.00
58622;BME280;44389;51.578;5.456;2023-05-21T05:44:27;101617.56;;;12.65;100.00
58622;BME280;44389;51.578;5.456;2023-05-21T05:46:52;101614.38;;;12.72;100.00
58622;BME280;44389;51.578;5.456;2023-05-21T05:49:18;101611.16;;;12.79;100.00
58622;BME280;44389;51.578;5.456;2023-05-21T05:51:43;101614.06;;;12.89;100.00
58622;BME280;44389;51.578;5.456;2023-05-21T05:54:08;101607.41;;;12.97;100.00
58622;BME280;44389;51.578;5.456;2023-05-21T05:56:34;101612.81;;;13.05;100.00
58622;BME280;44389;51.578;5.456;2023-05-21T05:58:59;101612.28;;;13.15;100.00
58622;BME280;44389;51.578;5.456;2023-05-21T06:01:24;101612.53;;;13.23;100.00
58622;BME280;44389;51.578;5.456;2023-05-21T06:03:50;101613.63;;;13.31;100.00
58622;BME280;44389;51.578;5.456;2023-05-21T06:06:16;101621.75;;;13.40;100.00
58622;BME280;44389;51.578;5.456;2023-05-21T06:08:41;101623.78;;;13.50;100.00
58622;BME280;44389;51.578;5.456;2023-05-21T06:11:07;101615.25;;;13.55;100.00
58622;BME280;44389;51.578;5.456;2023-05-21T06:13:33;101605.94;;;13.61;100.00
58622;BME280;44389;51.578;5.456;2023-05-21T06:15:59;101607.91;;;13.69;100.00
58622;BME280;44389;51.578;5.456;2023-05-21T06:18:24;101610.84;;;13.82;100.00
58622;BME280;44389;51.578;5.456;2023-05-21T06:20:49;101611.19;;;13.93;100.00
58622;BME280;44389;51.578;5.456;2023-05-21T06:23:15;101613.06;;;13.99;99.97
58622;BME280;44389;51.578;5.456;2023-05-21T06:25:40;101617.72;;;14.12;100.00
58622;BME280;44389;51.578;5.456;2023-05-21T06:28:05;101620.63;;;14.23;99.71
58622;BME280;44389;51.578;5.456;2023-05-21T06:30:31;101621.06;;;14.40;99.59
58622;BME280;44389;51.578;5.456;2023-05-21T06:32:56;101617.03;;;14.52;98.09
58622;BME280;44389;51.578;5.456;2023-05-21T06:35:22;101619.66;;;14.53;96.52
58622;BME280;44389;51.578;5.456;2023-05-21T06:37:47;101614.69;;;14.61;97.87
58622;BME280;44389;51.578;5.456;2023-05-21T06:40:13;101617.56;;;14.72;97.53
58622;BME280;44389;51.578;5.456;2023-05-21T06:42:38;101618.69;;;14.81;97.48
58622;BME280;44389;51.578;5.456;2023-05-21T06:45:04;101612.81;;;14.89;97.11
58622;BME280;44389;51.578;5.456;2023-05-21T06:47:29;101612.03;;;14.93;95.69
58622;BME280;44389;51.578;5.456;2023-05-21T06:49:55;101610.34;;;14.95;96.22
58622;BME280;44389;51.578;5.456;2023-05-21T06:52:20;101606.19;;;15.02;97.00
58622;BME280;44389;51.578;5.456;2023-05-21T06:54:45;101615.88;;;15.10;94.74
58622;BME280;44389;51.578;5.456;2023-05-21T06:57:12;101614.25;;;15.14;94.70
58622;BME280;44389;51.578;5.456;2023-05-21T06:59:37;101603.69;;;15.06;93.95
58622;BME280;44389;51.578;5.456;2023-05-21T07:02:03;101609.91;;;15.13;94.19
58622;BME280;44389;51.578;5.456;2023-05-21T07:04:28;101614.28;;;15.15;94.67
58622;BME280;44389;51.578;5.456;2023-05-21T07:06:53;101609.22;;;15.22;94.55
58622;BME280;44389;51.578;5.456;2023-05-21T07:09:18;101604.97;;;15.24;94.42
58622;BME280;44389;51.578;5.456;2023-05-21T07:11:44;101601.63;;;15.29;93.74
58622;BME280;44389;51.578;5.456;2023-05-21T07:14:09;101598.22;;;15.34;94.08
58622;BME280;44389;51.578;5.456;2023-05-21T07:16:35;101593.09;;;15.35;92.88
58622;BME280;44389;51.578;5.456;2023-05-21T07:19:00;101589.16;;;15.54;94.10
58622;BME280;44389;51.578;5.456;2023-05-21T07:21:25;101590.28;;;15.67;92.88
58622;BME280;44389;51.578;5.456;2023-05-21T07:23:51;101589.69;;;15.79;93.25
58622;BME280;44389;51.578;5.456;2023-05-21T07:26:16;101588.97;;;15.86;91.81
58622;BME280;44389;51.578;5.456;2023-05-21T07:28:41;101588.19;;;15.92;91.53
58622;BME280;44389;51.578;5.456;2023-05-21T07:31:07;101594.66;;;16.12;92.49
58622;BME280;44389;51.578;5.456;2023-05-21T07:33:32;101589.69;;;16.25;90.50
58622;BME280;44389;51.578;5.456;2023-05-21T07:35:58;101592.72;;;16.50;90.02
58622;BME280;44389;51.578;5.456;2023-05-21T07:38:23;101591.19;;;16.61;88.85
58622;BME280;44389;51.578;5.456;2023-05-21T07:40:48;101595.66;;;16.68;88.13
58622;BME280;44389;51.578;5.456;2023-05-21T07:43:13;101588.69;;;16.69;87.96
58622;BME280;44389;51.578;5.456;2023-05-21T07:45:39;101584.56;;;16.82;88.50
58622;BME280;44389;51.578;5.456;2023-05-21T07:48:04;101583.78;;;16.87;87.63
58622;BME280;44389;51.578;5.456;2023-05-21T07:50:30;101581.31;;;16.95;87.20
58622;BME280;44389;51.578;5.456;2023-05-21T07:52:55;101580.56;;;17.02;86.83
58622;BME280;44389;51.578;5.456;2023-05-21T07:55:20;101590.34;;;17.17;86.51
58622;BME280;44389;51.578;5.456;2023-05-21T07:57:46;101583.56;;;17.30;85.46
58622;BME280;44389;51.578;5.456;2023-05-21T08:00:11;101587.38;;;17.57;87.13
58622;BME280;44389;51.578;5.456;2023-05-21T08:02:38;101588.28;;;17.57;84.04
58622;BME280;44389;51.578;5.456;2023-05-21T08:05:04;101589.31;;;17.73;84.09
58622;BME280;44389;51.578;5.456;2023-05-21T08:07:29;101588.56;;;17.84;82.64
58622;BME280;44389;51.578;5.456;2023-05-21T08:09:56;101591.19;;;17.87;80.69
58622;BME280;44389;51.578;5.456;2023-05-21T08:12:22;101590.41;;;17.92;82.06
58622;BME280;44389;51.578;5.456;2023-05-21T08:14:47;101584.56;;;18.10;82.72
58622;BME280;44389;51.578;5.456;2023-05-21T08:17:12;101584.63;;;18.17;80.85
58622;BME280;44389;51.578;5.456;2023-05-21T08:19:37;101584.69;;;18.26;81.70
58622;BME280;44389;51.578;5.456;2023-05-21T08:22:03;101582.09;;;18.27;80.00
58622;BME280;44389;51.578;5.456;2023-05-21T08:24:31;101585.69;;;18.37;80.83
58622;BME280;44389;51.578;5.456;2023-05-21T08:26:56;101581.28;;;18.33;78.60
58622;BME280;44389;51.578;5.456;2023-05-21T08:29:22;101580.41;;;18.36;78.93
58622;BME280;44389;51.578;5.456;2023-05-21T08:31:47;101586.47;;;18.27;79.31
58622;BME280;44389;51.578;5.456;2023-05-21T08:34:12;101581.34;;;18.41;81.67
58622;BME280;44389;51.578;5.456;2023-05-21T08:36:38;101576.94;;;18.32;79.49
58622;BME280;44389;51.578;5.456;2023-05-21T08:39:03;101577.88;;;18.40;81.70
58622;BME280;44389;51.578;5.456;2023-05-21T08:41:30;101574.53;;;18.60;82.77
58622;BME280;44389;51.578;5.456;2023-05-21T08:44:00;101565.84;;;18.61;79.18
58622;BME280;44389;51.578;5.456;2023-05-21T08:46:28;101573.81;;;18.76;79.75
58622;BME280;44389;51.578;5.456;2023-05-21T08:48:57;101570.34;;;18.79;78.93
58622;BME280;44389;51.578;5.456;2023-05-21T08:51:23;101569.47;;;18.79;78.17
58622;BME280;44389;51.578;5.456;2023-05-21T08:53:48;101560.81;;;18.86;78.03
58622;BME280;44389;51.578;5.456;2023-05-21T08:56:16;101564.28;;;18.85;77.11
58622;BME280;44389;51.578;5.456;2023-05-21T08:58:46;101574.81;;;18.91;77.83
58622;BME280;44389;51.578;5.456;2023-05-21T09:01:12;101560.91;;;18.95;76.71
58622;BME280;44389;51.578;5.456;2023-05-21T09:03:39;101556.56;;;19.00;76.24
58622;BME280;44389;51.578;5.456;2023-05-21T09:06:08;101557.50;;;19.12;76.71
58622;BME280;44389;51.578;5.456;2023-05-21T09:08:37;101560.31;;;19.47;78.72
58622;BME280;44389;51.578;5.456;2023-05-21T09:11:03;101551.66;;;19.71;77.67
58622;BME280;44389;51.578;5.456;2023-05-21T09:13:30;101557.78;;;19.80;75.21
58622;BME280;44389;51.578;5.456;2023-05-21T09:15:57;101549.06;;;19.76;73.59
58622;BME280;44389;51.578;5.456;2023-05-21T09:18:22;101565.69;;;19.92;75.35
58622;BME280;44389;51.578;5.456;2023-05-21T09:20:48;101556.13;;;20.00;73.78
58622;BME280;44389;51.578;5.456;2023-05-21T09:23:16;101563.13;;;20.14;75.26
58622;BME280;44389;51.578;5.456;2023-05-21T09:25:45;101564.91;;;20.46;74.07
58622;BME280;44389;51.578;5.456;2023-05-21T09:28:12;101549.19;;;20.58;70.99
58622;BME280;44389;51.578;5.456;2023-05-21T09:30:46;101568.38;;;20.66;71.05
58622;BME280;44389;51.578;5.456;2023-05-21T09:33:23;101556.16;;;20.68;70.14
58622;BME280;44389;51.578;5.456;2023-05-21T09:35:48;101559.63;;;20.95;69.26
58622;BME280;44389;51.578;5.456;2023-05-21T09:38:14;101554.34;;;21.11;67.24
58622;BME280;44389;51.578;5.456;2023-05-21T09:40:43;101550.00;;;21.11;68.90
58622;BME280;44389;51.578;5.456;2023-05-21T09:43:12;101550.84;;;21.05;66.28
58622;BME280;44389;51.578;5.456;2023-05-21T09:45:49;101545.59;;;21.15;67.46
58622;BME280;44389;51.578;5.456;2023-05-21T09:48:14;101542.06;;;21.24;68.44
58622;BME280;44389;51.578;5.456;2023-05-21T09:50:40;101546.34;;;21.43;67.40
58622;BME280;44389;51.578;5.456;2023-05-21T09:53:11;101545.50;;;21.36;65.47
58622;BME280;44389;51.578;5.456;2023-05-21T09:55:37;101536.75;;;21.44;66.26
58622;BME280;44389;51.578;5.456;2023-05-21T09:58:03;101536.59;;;21.78;67.09
58622;BME280;44389;51.578;5.456;2023-05-21T10:00:30;101539.97;;;21.98;66.13
58622;BME280;44389;51.578;5.456;2023-05-21T10:02:57;101539.84;;;22.14;63.61
58622;BME280;44389;51.578;5.456;2023-05-21T10:05:26;101544.09;;;22.35;62.33
58622;BME280;44389;51.578;5.456;2023-05-21T10:07:58;101540.16;;;22.82;59.77
58622;BME280;44389;51.578;5.456;2023-05-21T10:10:24;101537.38;;;22.96;58.61
58622;BME280;44389;51.578;5.456;2023-05-21T10:12:54;101537.28;;;23.77;56.37
58622;BME280;44389;51.578;5.456;2023-05-21T10:15:23;101533.06;;;23.65;56.17
58622;BME280;44389;51.578;5.456;2023-05-21T10:17:48;101522.72;;;24.65;51.91
58622;BME280;44389;51.578;5.456;2023-05-21T10:20:15;101535.75;;;24.20;53.42
58622;BME280;44389;51.578;5.456;2023-05-21T10:22:40;101519.41;;;23.99;52.98
58622;BME280;44389;51.578;5.456;2023-05-21T10:25:07;101522.97;;;24.50;53.28
58622;BME280;44389;51.578;5.456;2023-05-21T10:27:34;101530.38;;;25.23;51.91
58622;BME280;44389;51.578;5.456;2023-05-21T10:30:00;101527.34;;;26.20;50.36
58622;BME280;44389;51.578;5.456;2023-05-21T10:32:26;101525.56;;;26.55;47.74
58622;BME280;44389;51.578;5.456;2023-05-21T10:34:55;101524.34;;;27.02;44.82
58622;BME280;44389;51.578;5.456;2023-05-21T10:37:23;101514.69;;;26.66;45.61
58622;BME280;44389;51.578;5.456;2023-05-21T10:39:50;101518.19;;;26.35;44.65
58622;BME280;44389;51.578;5.456;2023-05-21T10:58:22;101493.94;;;27.15;46.32
58622;BME280;44389;51.578;5.456;2023-05-21T11:00:54;101484.31;;;27.72;42.92
58622;BME280;44389;51.578;5.456;2023-05-21T11:03:20;101484.63;;;28.17;42.63
58622;BME280;44389;51.578;5.456;2023-05-21T11:05:56;101487.06;;;28.23;42.60
58622;BME280;44389;51.578;5.456;2023-05-21T11:08:26;101478.53;;;28.15;40.78
58622;BME280;44389;51.578;5.456;2023-05-21T11:10:56;101475.31;;;28.55;40.59
58622;BME280;44389;51.578;5.456;2023-05-21T11:13:25;101473.50;;;28.57;40.26
58622;BME280;44389;51.578;5.456;2023-05-21T11:21:13;101472.72;;;28.29;38.57
58622;BME280;44389;51.578;5.456;2023-05-21T11:23:59;101470.47;;;29.16;38.56
58622;BME280;44389;51.578;5.456;2023-05-21T11:26:28;101462.22;;;29.23;37.54
58622;BME280;44389;51.578;5.456;2023-05-21T11:31:29;101448.13;;;30.10;36.88
58622;BME280;44389;51.578;5.456;2023-05-21T11:36:43;101462.34;;;29.87;35.46
58622;BME280;44389;51.578;5.456;2023-05-21T11:39:10;101453.09;;;29.75;35.19
58622;BME280;44389;51.578;5.456;2023-05-21T11:41:52;101453.47;;;30.70;35.45
58622;BME280;44389;51.578;5.456;2023-05-21T11:44:37;101448.38;;;30.04;35.94
58622;BME280;44389;51.578;5.456;2023-05-21T11:47:07;101449.00;;;29.22;36.90
58622;BME280;44389;51.578;5.456;2023-05-21T11:49:34;101450.91;;;28.95;37.27
58622;BME280;44389;51.578;5.456;2023-05-21T11:51:59;101446.00;;;29.07;37.47
58622;BME280;44389;51.578;5.456;2023-05-21T11:54:26;101446.75;;;29.11;37.34
58622;BME280;44389;51.578;5.456;2023-05-21T11:56:53;101444.56;;;29.67;37.51
58622;BME280;44389;51.578;5.456;2023-05-21T11:59:19;101440.00;;;29.93;36.81
58622;BME280;44389;51.578;5.456;2023-05-21T12:01:44;101435.63;;;29.92;35.64
58622;BME280;44389;51.578;5.456;2023-05-21T12:04:10;101437.81;;;30.02;35.13
58622;BME280;44389;51.578;5.456;2023-05-21T12:06:41;101430.63;;;29.62;36.27
58622;BME280;44389;51.578;5.456;2023-05-21T12:09:10;101427.56;;;29.27;36.55
58622;BME280;44389;51.578;5.456;2023-05-21T12:11:39;101431.75;;;29.34;37.35
58622;BME280;44389;51.578;5.456;2023-05-21T12:14:11;101427.69;;;29.90;36.90
58622;BME280;44389;51.578;5.456;2023-05-21T12:16:38;101423.53;;;29.62;37.50
58622;BME280;44389;51.578;5.456;2023-05-21T12:19:05;101425.41;;;29.81;36.13
58622;BME280;44389;51.578;5.456;2023-05-21T12:21:31;101427.53;;;29.72;36.32
58622;BME280;44389;51.578;5.456;2023-05-21T12:23:57;101421.84;;;30.23;35.88
58622;BME280;44389;51.578;5.456;2023-05-21T12:26:23;101420.97;;;30.02;36.19
58622;BME280;44389;51.578;5.456;2023-05-21T12:28:54;101423.13;;;30.14;35.87
58622;BME280;44389;51.578;5.456;2023-05-21T12:31:23;101414.63;;;30.06;35.02
58622;BME280;44389;51.578;5.456;2023-05-21T12:33:51;101411.53;;;29.74;34.54
58622;BME280;44389;51.578;5.456;2023-05-21T12:36:35;101410.03;;;30.10;36.14
58622;BME280;44389;51.578;5.456;2023-05-21T12:39:02;101402.50;;;30.40;35.28
58622;BME280;44389;51.578;5.456;2023-05-21T12:41:28;101400.50;;;30.25;35.61
58622;BME280;44389;51.578;5.456;2023-05-21T12:43:53;101410.63;;;29.31;35.78
58622;BME280;44389;51.578;5.456;2023-05-21T12:46:19;101411.69;;;28.32;37.32
58622;BME280;44389;51.578;5.456;2023-05-21T12:48:54;101411.69;;;28.55;38.70
58622;BME280;44389;51.578;5.456;2023-05-21T12:51:20;101421.13;;;28.39;39.32
58622;BME280;44389;51.578;5.456;2023-05-21T12:53:45;101413.09;;;28.66;38.64
58622;BME280;44389;51.578;5.456;2023-05-21T12:56:12;101417.41;;;28.45;39.07
58622;BME280;44389;51.578;5.456;2023-05-21T12:58:38;101420.81;;;28.96;39.55
58622;BME280;44389;51.578;5.456;2023-05-21T13:01:08;101418.31;;;28.44;38.34
58622;BME280;44389;51.578;5.456;2023-05-21T13:03:34;101416.56;;;28.68;38.62
58622;BME280;44389;51.578;5.456;2023-05-21T13:06:00;101415.59;;;28.45;38.29
58622;BME280;44389;51.578;5.456;2023-05-21T13:08:25;101422.78;;;28.41;38.94